Time;durP1;ratioP1;P1;durP2;ratioP2;P2;SDS_P1;SDS_P2;PMS_P1;PMS_P2;Temp;Humidity;BMP_temperature;BMP_pressure;BME280_temperature;BME280_humidity;BME280_pressure;Samples;Min_cycle;Max_cycle;Signal;HPM_P1;HPM_P2
2023/05/10 00:01:01;;;;;;;1.83;1.73;;;;;;;;;;5162095;27;20202;-64
2023/05/10 00:03:28;;;;;;;1.60;1.50;;;;;;;;;;5161825;27;20292;-64
2023/05/10 00:05:56;;;;;;;1.75;1.65;;;;;;;;;;5161326;27;20245;-64
2023/05/10 00:08:25;;;;;;;1.83;1.67;;;;;;;;;;5160904;27;20639;-64
2023/05/10 00:10:53;;;;;;;2.00;1.90;;;;;;;;;;5161572;27;20244;-64
2023/05/10 00:13:21;;;;;;;1.92;1.83;;;;;;;;;;5161343;27;20202;-64
2023/05/10 00:15:48;;;;;;;1.63;1.52;;;;;;;;;;5161385;27;20262;-64
2023/05/10 00:18:16;;;;;;;1.90;1.80;;;;;;;;;;5161388;27;20287;-64
2023/05/10 00:20:45;;;;;;;1.80;1.70;;;;;;;;;;5161554;27;20205;-64
2023/05/10 00:23:13;;;;;;;1.73;1.63;;;;;;;;;;5160963;27;20585;-64
2023/05/10 00:25:42;;;;;;;2.00;1.90;;;;;;;;;;5161110;27;20237;-64
2023/05/10 00:28:09;;;;;;;1.88;1.77;;;;;;;;;;5160564;27;20580;-64
2023/05/10 00:30:37;;;;;;;1.75;1.65;;;;;;;;;;5160523;27;20206;-64
2023/05/10 00:33:05;;;;;;;1.90;1.80;;;;;;;;;;5160479;27;20242;-64
2023/05/10 00:35:32;;;;;;;1.80;1.70;;;;;;;;;;5161051;27;20645;-64
2023/05/10 00:37:59;;;;;;;1.67;1.58;;;;;;;;;;5160970;27;20202;-64
2023/05/10 00:40:28;;;;;;;1.90;1.80;;;;;;;;;;5160685;27;20201;-64
2023/05/10 00:42:57;;;;;;;1.90;1.80;;;;;;;;;;5161083;27;20297;-64
2023/05/10 00:45:25;;;;;;;1.88;1.77;;;;;;;;;;5160682;27;20213;-64
2023/05/10 00:47:55;;;;;;;1.67;1.58;;;;;;;;;;5161227;27;20209;-64
2023/05/10 00:50:22;;;;;;;1.80;1.70;;;;;;;;;;5160864;27;20559;-64
2023/05/10 00:52:50;;;;;;;2.03;1.92;;;;;;;;;;5160542;27;20202;-64
2023/05/10 00:55:18;;;;;;;1.90;1.80;;;;;;;;;;5160767;27;20705;-64
2023/05/10 00:57:46;;;;;;;1.92;1.83;;;;;;;;;;5160780;27;20210;-64
2023/05/10 01:00:18;;;;;;;1.85;1.75;;;;;;;;;;5160839;27;20197;-64
2023/05/10 01:02:46;;;;;;;1.90;1.80;;;;;;;;;;5160757;27;20202;-64
2023/05/10 01:05:13;;;;;;;1.85;1.75;;;;;;;;;;5160838;27;20233;-64
2023/05/10 01:07:41;;;;;;;1.50;1.40;;;;;;;;;;5160987;27;20209;-64
2023/05/10 01:10:10;;;;;;;1.77;1.67;;;;;;;;;;5160175;27;20256;-64
2023/05/10 01:12:38;;;;;;;1.70;1.60;;;;;;;;;;5160499;27;20581;-64
2023/05/10 01:15:08;;;;;;;1.88;1.77;;;;;;;;;;5160236;27;20266;-64
2023/05/10 01:17:37;;;;;;;1.90;1.80;;;;;;;;;;5159985;27;20248;-64
2023/05/10 01:20:07;;;;;;;1.90;1.80;;;;;;;;;;5160011;27;20247;-64
2023/05/10 01:22:51;;;;;;;1.95;1.85;;;;;;;;;;5160337;27;20289;-64
2023/05/10 01:25:41;;;;;;;1.60;1.50;;;;;;;;;;5159463;27;20529;-64
2023/05/10 01:28:21;;;;;;;1.65;1.55;;;;;;;;;;5160035;27;20213;-63
2023/05/10 01:31:15;;;;;;;1.83;1.73;;;;;;;;;;5160045;27;20201;-63
2023/05/10 01:33:49;;;;;;;1.63;1.52;;;;;;;;;;5160179;27;20237;-64
2023/05/10 01:36:25;;;;;;;1.90;1.80;;;;;;;;;;5160033;27;20201;-63
2023/05/10 01:38:55;;;;;;;1.90;1.80;;;;;;;;;;5159904;27;20219;-63
2023/05/10 01:41:26;;;;;;;1.70;1.60;;;;;;;;;;5160035;27;20465;-63
2023/05/10 01:43:57;;;;;;;1.60;1.50;;;;;;;;;;5160089;27;20262;-63
2023/05/10 01:46:28;;;;;;;1.92;1.83;;;;;;;;;;5159241;27;20235;-64
2023/05/10 01:48:59;;;;;;;1.90;1.80;;;;;;;;;;5160160;27;20233;-63
2023/05/10 01:51:29;;;;;;;2.00;1.90;;;;;;;;;;5159850;27;20593;-64
2023/05/10 01:54:00;;;;;;;2.00;1.80;;;;;;;;;;5160005;27;20573;-63
2023/05/10 01:56:28;;;;;;;1.80;1.70;;;;;;;;;;5160200;27;20240;-64
2023/05/10 01:58:57;;;;;;;2.00;1.90;;;;;;;;;;5159858;27;20577;-63
2023/05/10 02:01:26;;;;;;;1.80;1.70;;;;;;;;;;5159775;27;20240;-63
2023/05/10 02:03:55;;;;;;;1.70;1.60;;;;;;;;;;5160040;27;20201;-64
2023/05/10 02:06:24;;;;;;;1.60;1.50;;;;;;;;;;5159441;27;20201;-63
2023/05/10 02:08:53;;;;;;;1.80;1.70;;;;;;;;;;5159668;27;20233;-64
2023/05/10 02:11:22;;;;;;;2.00;1.90;;;;;;;;;;5159618;27;20201;-64
2023/05/10 02:13:50;;;;;;;1.73;1.63;;;;;;;;;;5159585;27;20201;-64
2023/05/10 02:16:18;;;;;;;1.80;1.70;;;;;;;;;;5159921;27;20220;-65
2023/05/10 02:18:46;;;;;;;1.63;1.52;;;;;;;;;;5159613;27;20198;-63
2023/05/10 02:21:15;;;;;;;1.90;1.80;;;;;;;;;;5159690;27;20245;-63
2023/05/10 02:23:44;;;;;;;1.88;1.77;;;;;;;;;;5159965;27;20208;-64
2023/05/10 02:26:13;;;;;;;1.90;1.80;;;;;;;;;;5159096;27;20229;-63
2023/05/10 02:28:42;;;;;;;1.65;1.55;;;;;;;;;;5159381;27;20202;-64
2023/05/10 02:31:10;;;;;;;1.90;1.80;;;;;;;;;;5159263;27;20249;-64
2023/05/10 02:33:38;;;;;;;1.85;1.75;;;;;;;;;;5159395;27;20248;-63
2023/05/10 02:36:07;;;;;;;1.65;1.55;;;;;;;;;;5159614;27;20280;-63
2023/05/10 02:38:35;;;;;;;1.88;1.77;;;;;;;;;;5159149;27;20202;-63
2023/05/10 02:41:05;;;;;;;1.70;1.60;;;;;;;;;;5159234;27;20252;-63
2023/05/10 02:43:34;;;;;;;1.88;1.70;;;;;;;;;;5159177;27;20517;-64
2023/05/10 02:46:01;;;;;;;1.85;1.70;;;;;;;;;;5159175;27;20226;-63
2023/05/10 02:48:29;;;;;;;1.50;1.40;;;;;;;;;;5159199;27;20604;-63
2023/05/10 02:50:57;;;;;;;1.65;1.55;;;;;;;;;;5158925;27;20239;-63
2023/05/10 02:53:32;;;;;;;1.90;1.80;;;;;;;;;;5159029;27;20210;-64
2023/05/10 02:56:01;;;;;;;2.08;1.65;;;;;;;;;;5158750;27;20201;-64
2023/05/10 02:58:30;;;;;;;1.63;1.52;;;;;;;;;;5161129;27;20201;-64
2023/05/10 03:00:57;;;;;;;1.85;1.60;;;;;;;;;;5163002;27;20236;-63
2023/05/10 03:03:25;;;;;;;1.88;1.77;;;;;;;;;;5163145;27;20202;-63
2023/05/10 03:05:55;;;;;;;1.70;1.60;;;;;;;;;;5162975;27;20202;-63
2023/05/10 03:08:23;;;;;;;2.17;1.80;;;;;;;;;;5162946;27;20267;-63
2023/05/10 03:10:57;;;;;;;2.08;1.98;;;;;;;;;;5162477;27;20225;-63
2023/05/10 03:13:29;;;;;;;1.90;1.80;;;;;;;;;;5162558;27;20478;-63
2023/05/10 03:16:01;;;;;;;1.50;1.40;;;;;;;;;;5162324;27;20265;-63
2023/05/10 03:18:31;;;;;;;1.60;1.50;;;;;;;;;;5162269;27;20206;-63
2023/05/10 03:20:59;;;;;;;1.80;1.70;;;;;;;;;;5161750;27;20258;-64
2023/05/10 03:23:29;;;;;;;1.90;1.80;;;;;;;;;;5162638;27;20202;-63
2023/05/10 03:25:56;;;;;;;1.80;1.70;;;;;;;;;;5162115;27;20245;-64
2023/05/10 03:28:27;;;;;;;1.83;1.73;;;;;;;;;;5162261;27;20236;-63
2023/05/10 03:30:55;;;;;;;2.75;1.60;;;;;;;;;;5162354;27;20232;-63
2023/05/10 03:33:24;;;;;;;1.77;1.67;;;;;;;;;;5161846;27;20274;-63
2023/05/10 03:35:51;;;;;;;1.95;1.55;;;;;;;;;;5162406;27;20202;-63
2023/05/10 03:38:19;;;;;;;1.92;1.83;;;;;;;;;;5161735;27;20202;-63
2023/05/10 03:40:46;;;;;;;2.08;1.58;;;;;;;;;;5161846;27;20266;-64
2023/05/10 03:43:14;;;;;;;1.90;1.80;;;;;;;;;;5161808;27;20612;-64
2023/05/10 03:45:42;;;;;;;2.05;1.95;;;;;;;;;;5161506;27;20201;-63
2023/05/10 03:48:09;;;;;;;1.80;1.70;;;;;;;;;;5161795;27;20202;-63
2023/05/10 03:50:38;;;;;;;1.60;1.50;;;;;;;;;;5161355;27;20225;-64
2023/05/10 03:53:06;;;;;;;1.50;1.40;;;;;;;;;;5161353;27;20658;-63
2023/05/10 03:55:35;;;;;;;1.77;1.67;;;;;;;;;;5161174;27;20201;-64
2023/05/10 03:58:03;;;;;;;1.88;1.77;;;;;;;;;;5161901;27;20484;-63
2023/05/10 04:00:31;;;;;;;1.80;1.70;;;;;;;;;;5162007;27;20209;-64
2023/05/10 04:02:58;;;;;;;2.00;1.90;;;;;;;;;;5161786;27;20202;-63
2023/05/10 04:05:26;;;;;;;1.52;1.42;;;;;;;;;;5161423;27;20212;-64
2023/05/10 04:07:55;;;;;;;1.60;1.50;;;;;;;;;;5161564;27;20646;-63
2023/05/10 04:10:23;;;;;;;1.80;1.70;;;;;;;;;;5159809;27;20222;-63
2023/05/10 04:12:50;;;;;;;1.67;1.58;;;;;;;;;;5160690;27;20791;-63
2023/05/10 04:15:18;;;;;;;1.75;1.65;;;;;;;;;;5161151;27;20215;-63
2023/05/10 04:17:46;;;;;;;1.73;1.63;;;;;;;;;;5160874;27;20262;-64
2023/05/10 04:20:13;;;;;;;1.63;1.52;;;;;;;;;;5160760;27;20296;-64
2023/05/10 04:22:42;;;;;;;1.80;1.70;;;;;;;;;;5161211;27;20577;-63
2023/05/10 04:25:11;;;;;;;1.85;1.52;;;;;;;;;;5160058;27;20225;-63
2023/05/10 04:27:38;;;;;;;1.70;1.60;;;;;;;;;;5160402;27;20202;-63
2023/05/10 04:30:07;;;;;;;1.70;1.60;;;;;;;;;;5160473;27;20549;-63
2023/05/10 04:32:34;;;;;;;1.80;1.70;;;;;;;;;;5160024;27;20202;-63
2023/05/10 04:35:03;;;;;;;1.67;1.58;;;;;;;;;;5160086;27;20758;-63
2023/05/10 04:37:31;;;;;;;1.65;1.55;;;;;;;;;;5160437;27;20296;-65
2023/05/10 04:39:59;;;;;;;1.70;1.60;;;;;;;;;;5160047;27;20198;-64
2023/05/10 04:42:28;;;;;;;1.60;1.50;;;;;;;;;;5159867;27;20474;-63
2023/05/10 04:44:56;;;;;;;1.63;1.52;;;;;;;;;;5159832;27;20203;-63
2023/05/10 04:47:23;;;;;;;1.92;1.83;;;;;;;;;;5159956;27;20205;-63
2023/05/10 04:49:51;;;;;;;1.92;1.83;;;;;;;;;;5158752;27;20261;-63
2023/05/10 04:52:19;;;;;;;1.85;1.75;;;;;;;;;;5159310;27;20236;-64
2023/05/10 04:54:47;;;;;;;1.90;1.80;;;;;;;;;;5158078;27;20212;-63
2023/05/10 04:57:14;;;;;;;1.50;1.40;;;;;;;;;;5158383;27;20245;-63
2023/05/10 04:59:43;;;;;;;1.75;1.65;;;;;;;;;;5158751;27;20190;-63
2023/05/10 05:02:11;;;;;;;1.73;1.63;;;;;;;;;;5158765;27;20312;-64
2023/05/10 05:04:38;;;;;;;1.50;1.40;;;;;;;;;;5157696;27;20193;-63
2023/05/10 05:07:06;;;;;;;1.70;1.60;;;;;;;;;;5157862;27;20198;-63
2023/05/10 05:09:33;;;;;;;1.60;1.50;;;;;;;;;;5158040;27;20284;-63
2023/05/10 05:12:00;;;;;;;1.95;1.83;;;;;;;;;;5158493;27;20201;-63
2023/05/10 05:14:28;;;;;;;1.70;1.60;;;;;;;;;;5157181;27;20202;-63
2023/05/10 05:16:57;;;;;;;1.83;1.73;;;;;;;;;;5157504;27;20262;-63
2023/05/10 05:19:25;;;;;;;1.90;1.70;;;;;;;;;;5157283;27;20209;-63
2023/05/10 05:21:52;;;;;;;1.80;1.70;;;;;;;;;;5156808;27;20262;-64
2023/05/10 05:24:20;;;;;;;1.80;1.70;;;;;;;;;;5157463;27;20206;-64
2023/05/10 05:26:47;;;;;;;1.70;1.60;;;;;;;;;;5157576;27;20244;-64
2023/05/10 05:29:15;;;;;;;2.00;1.90;;;;;;;;;;5156972;27;20209;-63
2023/05/10 05:31:43;;;;;;;1.92;1.83;;;;;;;;;;5157605;27;20316;-63
2023/05/10 05:34:12;;;;;;;1.90;1.80;;;;;;;;;;5157188;27;20201;-63
2023/05/10 05:36:39;;;;;;;1.70;1.60;;;;;;;;;;5157343;27;20600;-64
2023/05/10 05:39:07;;;;;;;2.20;1.88;;;;;;;;;;5157097;27;20308;-64
2023/05/10 05:41:34;;;;;;;1.70;1.60;;;;;;;;;;5156837;27;20446;-63
2023/05/10 05:44:02;;;;;;;1.60;1.50;;;;;;;;;;5141529;27;20198;-63
2023/05/10 05:46:30;;;;;;;1.73;1.63;;;;;;;;;;5135925;27;20202;-64
2023/05/10 05:48:57;;;;;;;2.10;1.90;;;;;;;;;;5136064;27;20302;-63
2023/05/10 05:51:26;;;;;;;2.03;1.92;;;;;;;;;;5135511;27;20225;-64
2023/05/10 05:53:54;;;;;;;1.88;1.77;;;;;;;;;;5136129;27;20296;-64
2023/05/10 05:56:24;;;;;;;1.90;1.80;;;;;;;;;;5135678;27;20516;-63
2023/05/10 05:58:52;;;;;;;1.80;1.70;;;;;;;;;;5136046;27;20202;-63
2023/05/10 06:01:19;;;;;;;1.98;1.88;;;;;;;;;;5134620;27;20905;-64
2023/05/10 06:03:47;;;;;;;1.80;1.70;;;;;;;;;;5135852;27;20277;-64
2023/05/10 06:06:14;;;;;;;1.98;1.88;;;;;;;;;;5135208;27;20604;-63
2023/05/10 06:08:43;;;;;;;1.70;1.60;;;;;;;;;;5136622;27;20289;-65
2023/05/10 06:11:14;;;;;;;1.90;1.80;;;;;;;;;;5136043;27;20230;-63
2023/05/10 06:13:42;;;;;;;1.73;1.63;;;;;;;;;;5136767;27;20574;-64
2023/05/10 06:16:10;;;;;;;1.88;1.77;;;;;;;;;;5136470;27;20457;-63
2023/05/10 06:18:38;;;;;;;1.60;1.50;;;;;;;;;;5135286;27;20304;-64
2023/05/10 06:21:05;;;;;;;1.80;1.70;;;;;;;;;;5135095;27;20206;-64
2023/05/10 06:23:33;;;;;;;1.85;1.75;;;;;;;;;;5136102;27;20202;-63
2023/05/10 06:26:02;;;;;;;2.10;2.00;;;;;;;;;;5120968;27;20246;-64
2023/05/10 06:28:32;;;;;;;2.10;2.00;;;;;;;;;;5115792;28;20203;-64
2023/05/10 06:30:59;;;;;;;2.00;1.90;;;;;;;;;;5115882;28;20291;-63
2023/05/10 06:33:27;;;;;;;1.80;1.70;;;;;;;;;;5118705;28;20199;-64
2023/05/10 06:35:55;;;;;;;2.10;1.90;;;;;;;;;;5119682;28;20210;-64
2023/05/10 06:38:23;;;;;;;1.90;1.80;;;;;;;;;;5119556;28;20582;-63
2023/05/10 06:40:50;;;;;;;1.83;1.73;;;;;;;;;;5119127;28;20199;-63
2023/05/10 06:43:19;;;;;;;1.90;1.80;;;;;;;;;;5120105;28;20233;-63
2023/05/10 06:45:47;;;;;;;2.17;1.98;;;;;;;;;;5120253;28;20556;-63
2023/05/10 06:48:14;;;;;;;1.73;1.63;;;;;;;;;;5120008;28;20594;-64
2023/05/10 06:50:42;;;;;;;1.80;1.70;;;;;;;;;;5119944;28;20230;-63
2023/05/10 06:53:10;;;;;;;1.73;1.60;;;;;;;;;;5119630;28;20207;-63
2023/05/10 06:55:37;;;;;;;1.95;1.80;;;;;;;;;;5119721;28;20268;-63
2023/05/10 06:58:05;;;;;;;2.08;1.98;;;;;;;;;;5120058;28;20264;-63
2023/05/10 07:00:34;;;;;;;1.80;1.70;;;;;;;;;;5120535;28;20275;-63
2023/05/10 07:03:01;;;;;;;1.60;1.50;;;;;;;;;;5119449;28;20211;-63
2023/05/10 07:05:29;;;;;;;1.77;1.67;;;;;;;;;;5119534;28;20285;-63
2023/05/10 07:07:57;;;;;;;2.15;1.77;;;;;;;;;;5119026;28;20305;-63
2023/05/10 07:10:24;;;;;;;1.70;1.60;;;;;;;;;;5120449;27;20222;-64
2023/05/10 07:12:52;;;;;;;1.98;1.60;;;;;;;;;;5119405;28;20229;-63
2023/05/10 07:15:20;;;;;;;1.95;1.85;;;;;;;;;;5119563;28;20227;-63
2023/05/10 07:17:49;;;;;;;1.80;1.70;;;;;;;;;;5119107;28;20504;-63
2023/05/10 07:20:16;;;;;;;1.63;1.52;;;;;;;;;;5119228;28;20203;-64
2023/05/10 07:22:44;;;;;;;1.90;1.80;;;;;;;;;;5118743;28;20480;-64
2023/05/10 07:25:11;;;;;;;2.03;1.90;;;;;;;;;;5126290;27;20379;-64
2023/05/10 07:27:39;;;;;;;1.90;1.80;;;;;;;;;;5139917;27;20635;-63
2023/05/10 07:30:08;;;;;;;1.88;1.77;;;;;;;;;;5139567;27;20305;-63
2023/05/10 07:32:35;;;;;;;1.60;1.50;;;;;;;;;;5138580;27;20296;-63
2023/05/10 07:35:04;;;;;;;1.90;1.80;;;;;;;;;;5138941;27;20210;-63
2023/05/10 07:37:32;;;;;;;2.00;1.90;;;;;;;;;;5139044;27;20202;-64
2023/05/10 07:39:59;;;;;;;1.80;1.70;;;;;;;;;;5139362;27;20202;-63
2023/05/10 07:42:27;;;;;;;1.80;1.70;;;;;;;;;;5138526;27;20260;-63
2023/05/10 07:44:55;;;;;;;2.05;1.73;;;;;;;;;;5138492;27;20230;-63
2023/05/10 07:47:23;;;;;;;1.75;1.65;;;;;;;;;;5139166;27;20206;-64
2023/05/10 07:49:50;;;;;;;1.80;1.70;;;;;;;;;;5138804;27;20228;-63
2023/05/10 07:52:20;;;;;;;1.85;1.75;;;;;;;;;;5138289;27;20321;-63
2023/05/10 07:54:48;;;;;;;1.77;1.67;;;;;;;;;;5138462;27;20225;-63
2023/05/10 07:57:17;;;;;;;1.80;1.70;;;;;;;;;;5138660;27;20243;-64
2023/05/10 07:59:45;;;;;;;1.95;1.85;;;;;;;;;;5138487;27;20281;-63
2023/05/10 08:02:13;;;;;;;2.08;1.98;;;;;;;;;;5138438;27;20198;-64
2023/05/10 08:04:40;;;;;;;1.85;1.75;;;;;;;;;;5137905;27;20275;-63
2023/05/10 08:07:08;;;;;;;2.00;1.90;;;;;;;;;;5138047;27;20210;-64
2023/05/10 08:09:37;;;;;;;1.75;1.65;;;;;;;;;;5138246;27;20202;-63
2023/05/10 08:12:05;;;;;;;1.80;1.70;;;;;;;;;;5138454;27;20229;-63
2023/05/10 08:14:32;;;;;;;1.90;1.80;;;;;;;;;;5139012;27;20240;-63
2023/05/10 08:17:00;;;;;;;2.00;1.90;;;;;;;;;;5138565;27;20213;-64
2023/05/10 08:19:28;;;;;;;1.73;1.63;;;;;;;;;;5138295;27;20206;-63
2023/05/10 08:21:56;;;;;;;2.08;1.90;;;;;;;;;;5137935;27;20261;-63
2023/05/10 08:24:24;;;;;;;2.00;1.90;;;;;;;;;;5138278;27;20330;-64
2023/05/10 08:26:53;;;;;;;1.77;1.67;;;;;;;;;;5138176;27;20225;-63
2023/05/10 08:29:20;;;;;;;1.80;1.70;;;;;;;;;;5137834;27;20202;-63
2023/05/10 08:31:48;;;;;;;1.85;1.75;;;;;;;;;;5138837;27;20222;-63
2023/05/10 08:34:15;;;;;;;2.22;1.80;;;;;;;;;;5138157;27;20539;-63
2023/05/10 08:36:43;;;;;;;1.90;1.80;;;;;;;;;;5138247;27;20202;-64
2023/05/10 08:39:11;;;;;;;2.00;1.90;;;;;;;;;;5138168;27;20561;-63
2023/05/10 08:41:40;;;;;;;1.73;1.63;;;;;;;;;;5137513;27;20202;-63
2023/05/10 08:44:10;;;;;;;1.73;1.63;;;;;;;;;;5137993;27;20795;-63
2023/05/10 08:46:39;;;;;;;1.77;1.67;;;;;;;;;;5137288;27;20661;-64
2023/05/10 08:49:08;;;;;;;1.60;1.50;;;;;;;;;;5138090;27;20237;-64
2023/05/10 08:51:38;;;;;;;1.90;1.50;;;;;;;;;;5137501;27;20218;-63
2023/05/10 08:54:06;;;;;;;1.88;1.77;;;;;;;;;;5136961;27;20202;-64
2023/05/10 08:56:34;;;;;;;1.80;1.70;;;;;;;;;;5137285;27;20202;-63
2023/05/10 08:59:01;;;;;;;1.90;1.80;;;;;;;;;;5137765;27;20198;-63
2023/05/10 09:01:33;;;;;;;1.85;1.75;;;;;;;;;;5137872;27;20202;-64
2023/05/10 09:04:01;;;;;;;1.80;1.70;;;;;;;;;;5137298;27;20212;-63
2023/05/10 09:06:28;;;;;;;1.70;1.60;;;;;;;;;;5137440;27;20234;-63
2023/05/10 09:08:56;;;;;;;1.95;1.85;;;;;;;;;;5137876;27;20205;-63
2023/05/10 09:11:24;;;;;;;2.08;1.77;;;;;;;;;;5136306;27;20248;-63
2023/05/10 09:13:52;;;;;;;1.77;1.67;;;;;;;;;;5137456;27;20586;-64
2023/05/10 09:16:20;;;;;;;1.98;1.88;;;;;;;;;;5136845;27;20594;-63
2023/05/10 09:18:50;;;;;;;1.90;1.80;;;;;;;;;;5136736;27;20206;-64
2023/05/10 09:21:17;;;;;;;1.85;1.75;;;;;;;;;;5136634;27;20206;-63
2023/05/10 09:23:46;;;;;;;1.90;1.80;;;;;;;;;;5137102;27;20705;-64
2023/05/10 09:26:14;;;;;;;2.05;1.70;;;;;;;;;;5135948;27;20234;-67
2023/05/10 09:28:52;;;;;;;2.00;1.90;;;;;;;;;;5136500;27;20202;-64
2023/05/10 09:31:20;;;;;;;1.83;1.73;;;;;;;;;;5136249;27;20261;-63
2023/05/10 09:33:50;;;;;;;1.83;1.73;;;;;;;;;;5136163;27;20757;-63
2023/05/10 09:36:17;;;;;;;1.80;1.70;;;;;;;;;;5137438;27;20209;-63
2023/05/10 09:38:48;;;;;;;1.90;1.80;;;;;;;;;;5137577;27;20206;-64
2023/05/10 09:41:20;;;;;;;1.90;1.80;;;;;;;;;;5135928;27;20620;-64
2023/05/10 09:43:48;;;;;;;1.90;1.80;;;;;;;;;;5136559;27;20289;-63
2023/05/10 09:46:16;;;;;;;1.77;1.67;;;;;;;;;;5136455;27;20601;-64
2023/05/10 09:48:45;;;;;;;1.90;1.80;;;;;;;;;;5136454;27;20300;-63
2023/05/10 09:51:20;;;;;;;1.90;1.80;;;;;;;;;;5135946;27;20274;-63
2023/05/10 09:53:48;;;;;;;2.13;2.00;;;;;;;;;;5135998;27;20553;-64
2023/05/10 09:56:35;;;;;;;1.73;1.63;;;;;;;;;;5136231;27;20194;-63
2023/05/10 09:59:06;;;;;;;1.70;1.60;;;;;;;;;;5134369;27;20198;-64
2023/05/10 10:01:33;;;;;;;4.88;1.95;;;;;;;;;;5136179;28;20198;-63
2023/05/10 10:04:04;;;;;;;2.28;1.90;;;;;;;;;;5136655;28;20210;-64
2023/05/10 10:06:36;;;;;;;2.35;1.88;;;;;;;;;;5135886;27;20212;-64
2023/05/10 10:09:04;;;;;;;2.85;1.65;;;;;;;;;;5139274;27;20674;-63
2023/05/10 10:11:32;;;;;;;1.67;1.58;;;;;;;;;;5140461;27;20660;-63
2023/05/10 10:14:00;;;;;;;1.90;1.70;;;;;;;;;;5139407;27;20225;-64
2023/05/10 10:16:28;;;;;;;1.85;1.70;;;;;;;;;;5140022;27;20570;-63
2023/05/10 10:18:56;;;;;;;2.15;1.90;;;;;;;;;;5140716;27;20284;-64
2023/05/10 10:21:24;;;;;;;1.63;1.50;;;;;;;;;;5141075;27;20234;-64
2023/05/10 10:23:53;;;;;;;2.00;1.90;;;;;;;;;;5141255;27;20234;-63
2023/05/10 10:26:21;;;;;;;1.90;1.80;;;;;;;;;;5140119;27;20225;-64
2023/05/10 10:28:52;;;;;;;2.03;1.80;;;;;;;;;;5139785;27;20229;-63
2023/05/10 10:31:25;;;;;;;1.98;1.80;;;;;;;;;;5139246;27;20204;-64
2023/05/10 10:33:57;;;;;;;2.25;1.80;;;;;;;;;;5140010;27;20210;-64
2023/05/10 10:36:26;;;;;;;2.20;2.00;;;;;;;;;;5139778;27;20285;-64
2023/05/10 10:39:03;;;;;;;1.80;1.70;;;;;;;;;;5139508;27;20421;-64
2023/05/10 10:41:32;;;;;;;1.88;1.77;;;;;;;;;;5138592;27;20298;-63
2023/05/10 10:44:23;;;;;;;1.80;1.70;;;;;;;;;;5138378;27;20262;-63
2023/05/10 10:47:05;;;;;;;1.80;1.70;;;;;;;;;;5118433;27;20206;-64
2023/05/10 10:49:33;;;;;;;2.00;1.80;;;;;;;;;;5139328;27;20202;-63
2023/05/10 10:52:17;;;;;;;1.98;1.88;;;;;;;;;;5138621;27;20268;-64
2023/05/10 10:54:51;;;;;;;1.90;1.80;;;;;;;;;;5138785;27;20201;-64
2023/05/10 10:57:21;;;;;;;2.03;1.90;;;;;;;;;;5138286;27;20202;-64
2023/05/10 10:59:49;;;;;;;1.90;1.80;;;;;;;;;;5138877;27;20267;-64
2023/05/10 11:02:34;;;;;;;1.90;1.80;;;;;;;;;;5138799;27;20220;-64
2023/05/10 11:05:22;;;;;;;1.77;1.67;;;;;;;;;;5138783;27;20205;-64
2023/05/10 11:07:53;;;;;;;1.90;1.80;;;;;;;;;;5138371;27;20205;-64
2023/05/10 11:10:23;;;;;;;1.85;1.75;;;;;;;;;;5138769;27;20202;-63
2023/05/10 11:12:55;;;;;;;1.80;1.70;;;;;;;;;;5138891;27;20313;-65
2023/05/10 11:15:30;;;;;;;1.80;1.70;;;;;;;;;;5138898;27;20198;-63
2023/05/10 11:17:58;;;;;;;1.90;1.80;;;;;;;;;;5139159;27;20194;-63
2023/05/10 11:20:33;;;;;;;2.03;1.92;;;;;;;;;;5140104;27;20577;-63
2023/05/10 11:23:12;;;;;;;1.90;1.80;;;;;;;;;;5140328;27;20272;-63
2023/05/10 11:25:44;;;;;;;1.95;1.85;;;;;;;;;;5138862;27;20234;-63
2023/05/10 11:28:12;;;;;;;1.80;1.70;;;;;;;;;;5138522;27;20213;-64
2023/05/10 11:30:40;;;;;;;1.73;1.63;;;;;;;;;;5138604;27;20579;-63
2023/05/10 11:33:08;;;;;;;1.85;1.65;;;;;;;;;;5138237;27;20222;-64
2023/05/10 11:35:39;;;;;;;2.03;1.92;;;;;;;;;;5138275;27;20202;-64
2023/05/10 11:38:07;;;;;;;2.30;1.70;;;;;;;;;;5138169;27;20202;-64
2023/05/10 11:40:35;;;;;;;1.90;1.80;;;;;;;;;;5138456;27;20206;-64
2023/05/10 11:43:05;;;;;;;2.38;2.00;;;;;;;;;;5137535;27;20198;-64
2023/05/10 11:45:33;;;;;;;1.80;1.70;;;;;;;;;;5138969;27;20202;-64
2023/05/10 11:48:02;;;;;;;1.80;1.70;;;;;;;;;;5137975;27;20204;-64
2023/05/10 11:50:30;;;;;;;1.75;1.65;;;;;;;;;;5137638;27;20285;-64
2023/05/10 11:52:58;;;;;;;1.85;1.70;;;;;;;;;;5138346;27;20321;-64
2023/05/10 11:55:26;;;;;;;1.75;1.63;;;;;;;;;;5137597;27;20210;-65
2023/05/10 11:57:54;;;;;;;1.80;1.70;;;;;;;;;;5137499;27;20225;-64
2023/05/10 12:00:23;;;;;;;1.70;1.60;;;;;;;;;;5137755;27;20503;-64
2023/05/10 12:02:51;;;;;;;2.00;1.80;;;;;;;;;;5137724;27;20506;-64
2023/05/10 12:05:19;;;;;;;1.95;1.85;;;;;;;;;;5138026;27;20797;-63
2023/05/10 12:07:46;;;;;;;1.80;1.70;;;;;;;;;;5137288;27;20210;-63
2023/05/10 12:10:14;;;;;;;1.85;1.75;;;;;;;;;;5137367;27;20206;-63
2023/05/10 12:12:42;;;;;;;2.00;1.90;;;;;;;;;;5137562;27;20291;-63
2023/05/10 12:15:15;;;;;;;1.70;1.60;;;;;;;;;;5137782;27;20245;-64
2023/05/10 12:17:45;;;;;;;1.80;1.70;;;;;;;;;;5136825;27;20815;-63
2023/05/10 12:20:16;;;;;;;2.00;1.90;;;;;;;;;;5137144;27;20198;-65
2023/05/10 12:22:46;;;;;;;1.92;1.83;;;;;;;;;;5137377;27;20286;-65
2023/05/10 12:25:13;;;;;;;2.28;1.98;;;;;;;;;;5136153;27;20736;-65
2023/05/10 12:27:41;;;;;;;2.03;1.83;;;;;;;;;;5136483;27;20206;-63
2023/05/10 12:30:09;;;;;;;1.55;1.45;;;;;;;;;;5135955;27;20651;-63
2023/05/10 12:32:40;;;;;;;1.92;1.83;;;;;;;;;;5137149;27;20229;-64
2023/05/10 12:35:09;;;;;;;1.90;1.80;;;;;;;;;;5137060;27;20229;-63
2023/05/10 12:37:38;;;;;;;1.83;1.73;;;;;;;;;;5136154;27;20593;-64
2023/05/10 12:40:09;;;;;;;1.98;1.88;;;;;;;;;;5136372;27;20586;-64
2023/05/10 12:42:37;;;;;;;1.83;1.73;;;;;;;;;;5136906;27;20348;-64
2023/05/10 12:45:05;;;;;;;4.03;1.80;;;;;;;;;;5137015;27;20513;-64
2023/05/10 12:47:34;;;;;;;1.85;1.75;;;;;;;;;;5136245;27;20221;-63
2023/05/10 12:50:02;;;;;;;2.00;1.90;;;;;;;;;;5136355;27;20202;-64
2023/05/10 12:52:32;;;;;;;1.90;1.80;;;;;;;;;;5136964;27;20233;-63
2023/05/10 12:54:59;;;;;;;1.80;1.70;;;;;;;;;;5136823;27;20213;-63
2023/05/10 12:57:28;;;;;;;2.10;2.00;;;;;;;;;;5137217;27;20233;-64
2023/05/10 12:59:56;;;;;;;1.77;1.67;;;;;;;;;;5136749;27;20203;-64
2023/05/10 13:02:23;;;;;;;1.80;1.70;;;;;;;;;;5137432;27;20195;-64
2023/05/10 13:04:51;;;;;;;2.10;2.00;;;;;;;;;;5136838;27;20214;-63
2023/05/10 13:07:19;;;;;;;2.00;1.90;;;;;;;;;;5137385;27;20301;-64
2023/05/10 13:09:48;;;;;;;1.70;1.60;;;;;;;;;;5136962;27;20642;-63
2023/05/10 13:12:16;;;;;;;1.80;1.70;;;;;;;;;;5136848;27;20755;-63
2023/05/10 13:14:43;;;;;;;2.08;1.98;;;;;;;;;;5136732;27;20258;-64
2023/05/10 13:17:10;;;;;;;1.50;1.40;;;;;;;;;;5135384;27;20202;-63
2023/05/10 13:19:38;;;;;;;2.08;1.98;;;;;;;;;;5136929;27;20643;-64
2023/05/10 13:22:06;;;;;;;1.95;1.85;;;;;;;;;;5136465;27;20230;-63
2023/05/10 13:24:33;;;;;;;1.75;1.65;;;;;;;;;;5136340;27;20213;-64
2023/05/10 13:27:02;;;;;;;1.70;1.60;;;;;;;;;;5136349;27;20213;-63
2023/05/10 13:29:29;;;;;;;2.08;1.98;;;;;;;;;;5137398;27;20202;-64
2023/05/10 13:31:57;;;;;;;1.90;1.80;;;;;;;;;;5136478;27;20259;-64
2023/05/10 13:34:24;;;;;;;1.73;1.63;;;;;;;;;;5136248;27;20257;-64
2023/05/10 13:36:53;;;;;;;1.90;1.80;;;;;;;;;;5136308;27;20308;-65
2023/05/10 13:39:21;;;;;;;1.80;1.70;;;;;;;;;;5136287;27;20194;-64
2023/05/10 13:41:49;;;;;;;1.63;1.52;;;;;;;;;;5135867;27;20209;-63
2023/05/10 13:44:18;;;;;;;1.90;1.80;;;;;;;;;;5135533;27;20259;-64
2023/05/10 13:46:45;;;;;;;1.63;1.52;;;;;;;;;;5135149;27;20299;-64
2023/05/10 13:49:13;;;;;;;1.60;1.50;;;;;;;;;;5135152;27;20213;-64
2023/05/10 13:51:40;;;;;;;1.60;1.50;;;;;;;;;;5135866;27;20195;-64
2023/05/10 13:54:08;;;;;;;1.67;1.58;;;;;;;;;;5135867;27;20226;-63
2023/05/10 13:56:35;;;;;;;1.90;1.80;;;;;;;;;;5135289;27;20271;-64
2023/05/10 13:59:03;;;;;;;1.80;1.70;;;;;;;;;;5135872;27;20634;-65
2023/05/10 14:01:32;;;;;;;1.80;1.70;;;;;;;;;;5136309;27;20590;-64
2023/05/10 14:03:59;;;;;;;1.70;1.60;;;;;;;;;;5135745;28;20233;-64
2023/05/10 14:06:27;;;;;;;1.73;1.63;;;;;;;;;;5135323;28;20581;-64
2023/05/10 14:08:55;;;;;;;1.85;1.75;;;;;;;;;;5135008;28;20694;-64
2023/05/10 14:11:23;;;;;;;1.70;1.60;;;;;;;;;;5134958;28;20209;-64
2023/05/10 14:13:50;;;;;;;1.80;1.70;;;;;;;;;;5135483;28;20226;-65
2023/05/10 14:16:19;;;;;;;1.80;1.70;;;;;;;;;;5135571;28;20206;-64
2023/05/10 14:18:48;;;;;;;1.80;1.70;;;;;;;;;;5135033;28;20297;-63
2023/05/10 14:21:16;;;;;;;1.67;1.58;;;;;;;;;;5135345;28;20213;-63
2023/05/10 14:23:44;;;;;;;1.70;1.60;;;;;;;;;;5136184;28;20263;-64
2023/05/10 14:26:11;;;;;;;1.70;1.60;;;;;;;;;;5135008;27;20628;-64
2023/05/10 14:28:39;;;;;;;1.85;1.75;;;;;;;;;;5136435;28;20210;-64
2023/05/10 14:31:06;;;;;;;2.00;1.90;;;;;;;;;;5135179;28;20202;-64
2023/05/10 14:33:34;;;;;;;1.63;1.52;;;;;;;;;;5135642;28;20604;-64
2023/05/10 14:36:04;;;;;;;1.63;1.52;;;;;;;;;;5135196;28;20206;-64
2023/05/10 14:38:31;;;;;;;1.83;1.73;;;;;;;;;;5135638;28;20267;-64
2023/05/10 14:40:59;;;;;;;2.38;1.77;;;;;;;;;;5135467;28;20210;-64
2023/05/10 14:43:27;;;;;;;1.65;1.52;;;;;;;;;;5135109;28;20237;-64
2023/05/10 14:45:54;;;;;;;1.65;1.55;;;;;;;;;;5136252;28;20478;-64
2023/05/10 14:48:22;;;;;;;1.65;1.55;;;;;;;;;;5134572;28;20194;-65
2023/05/10 14:50:52;;;;;;;1.73;1.63;;;;;;;;;;5135291;28;20209;-64
2023/05/10 14:53:21;;;;;;;1.80;1.70;;;;;;;;;;5136747;27;20527;-64